AAL8 YBBN-KDFW
Flight info
| Callsign | AAL8 |
|---|---|
| Flight time | N/A |
| Altitude | 29000 |
| Route | GUMKI B578 ISTEM/N0505F310 B578 LTO B599 NN B581 BAXIL DCT 11S175W DCT GOMIK DCT 05S165W/N0506F330 03S160W 01S155W 02N150W DCT ANJJE/N0499F350 DCT 08N140W 12N135W 15N130W 18N125W/N0493F370 21N120W 24N115W DCT LTO UJ2 CEN DCT OTEXA DCT MEGBE DCT FST DCT GEEKY SOCKK4 |
| Aircraft | B77W/H-SDE1E2E3FGHIJ2J3J4J5M1RWXY/LB1D1 |
Departure
| Time | N/A |
|---|---|
| Airport | Brisbane International Airport (YBBN) |
Arrival
| Time | 2026-04-30 15:11 |
|---|---|
| Airport | Dallas Fort Worth International Airport (KDFW) |
| Time | Latitude | Longitude | Altitude | Speed | Heading |
|---|---|---|---|---|---|
| 2026-04-30 12:19 | 20.69224 | -120.53286 | 36962 ft | 533 kts | 57° |
| 2026-04-30 12:19 | 20.73137 | -120.46538 | 36962 ft | 533 kts | 57° |
| 2026-04-30 12:20 | 20.77051 | -120.39780 | 36962 ft | 533 kts | 57° |
| 2026-04-30 12:20 | 20.80934 | -120.33070 | 36954 ft | 533 kts | 57° |
| 2026-04-30 12:21 | 20.84835 | -120.26320 | 36950 ft | 533 kts | 57° |
| 2026-04-30 12:21 | 20.88728 | -120.19576 | 36951 ft | 534 kts | 57° |
| 2026-04-30 12:22 | 20.92601 | -120.12857 | 36953 ft | 534 kts | 57° |
| 2026-04-30 12:22 | 20.96518 | -120.06054 | 36954 ft | 535 kts | 57° |
| 2026-04-30 12:23 | 21.00399 | -119.99308 | 36954 ft | 535 kts | 57° |
| 2026-04-30 12:23 | 21.04529 | -119.92680 | 36955 ft | 536 kts | 54° |
| 2026-04-30 12:24 | 21.08706 | -119.86066 | 36955 ft | 537 kts | 54° |
| 2026-04-30 12:24 | 21.12857 | -119.79463 | 36952 ft | 536 kts | 54° |
| 2026-04-30 12:25 | 21.16998 | -119.72860 | 36951 ft | 535 kts | 54° |
| 2026-04-30 12:25 | 21.21137 | -119.66244 | 36948 ft | 536 kts | 54° |
| 2026-04-30 12:26 | 21.25294 | -119.59589 | 36947 ft | 536 kts | 54° |
| 2026-04-30 12:26 | 21.29434 | -119.52953 | 36948 ft | 537 kts | 54° |
| 2026-04-30 12:27 | 21.33565 | -119.46317 | 36949 ft | 537 kts | 54° |
| 2026-04-30 12:27 | 21.37728 | -119.39625 | 36952 ft | 538 kts | 54° |
| 2026-04-30 12:28 | 21.41869 | -119.32958 | 36943 ft | 538 kts | 54° |
| 2026-04-30 12:28 | 21.46021 | -119.26266 | 36943 ft | 538 kts | 54° |
| 2026-04-30 12:29 | 21.50160 | -119.19586 | 36946 ft | 538 kts | 54° |
| 2026-04-30 12:29 | 21.54299 | -119.12901 | 36947 ft | 537 kts | 54° |
| 2026-04-30 12:30 | 21.58439 | -119.06203 | 36949 ft | 537 kts | 54° |
| 2026-04-30 12:30 | 21.62542 | -118.99557 | 36951 ft | 537 kts | 54° |
| 2026-04-30 12:31 | 21.66519 | -118.93107 | 36952 ft | 537 kts | 54° |
| 2026-04-30 12:31 | 21.70614 | -118.86458 | 36955 ft | 536 kts | 54° |
| 2026-04-30 12:32 | 21.74716 | -118.79791 | 36958 ft | 535 kts | 54° |
| 2026-04-30 12:32 | 21.78827 | -118.73099 | 36960 ft | 535 kts | 54° |
| 2026-04-30 12:33 | 21.82929 | -118.66414 | 36961 ft | 534 kts | 54° |
| 2026-04-30 12:33 | 21.87014 | -118.59750 | 36962 ft | 534 kts | 54° |
| 2026-04-30 12:34 | 21.91085 | -118.53101 | 36963 ft | 533 kts | 54° |
| 2026-04-30 12:34 | 21.95137 | -118.46474 | 36964 ft | 533 kts | 54° |
| 2026-04-30 12:35 | 21.99223 | -118.39781 | 36965 ft | 533 kts | 54° |
| 2026-04-30 12:35 | 22.03269 | -118.33148 | 36956 ft | 533 kts | 54° |
| 2026-04-30 12:36 | 22.07340 | -118.26466 | 36952 ft | 532 kts | 54° |
| 2026-04-30 12:36 | 22.11404 | -118.19785 | 36950 ft | 533 kts | 54° |
| 2026-04-30 12:37 | 22.15461 | -118.13108 | 36950 ft | 533 kts | 54° |
| 2026-04-30 12:37 | 22.19497 | -118.06458 | 36951 ft | 533 kts | 54° |
| 2026-04-30 12:38 | 22.23570 | -117.99738 | 36952 ft | 533 kts | 54° |
| 2026-04-30 12:38 | 22.27600 | -117.93081 | 36953 ft | 533 kts | 54° |
| 2026-04-30 12:39 | 22.31653 | -117.86378 | 36955 ft | 533 kts | 54° |
| 2026-04-30 12:39 | 22.35694 | -117.79686 | 36956 ft | 533 kts | 54° |
| 2026-04-30 12:40 | 22.39735 | -117.72986 | 36956 ft | 532 kts | 54° |
| 2026-04-30 12:40 | 22.43784 | -117.66262 | 36958 ft | 533 kts | 54° |
| 2026-04-30 12:41 | 22.47826 | -117.59543 | 36959 ft | 534 kts | 54° |
| 2026-04-30 12:41 | 22.51881 | -117.52794 | 36960 ft | 534 kts | 54° |
| 2026-04-30 12:42 | 22.55918 | -117.46066 | 36961 ft | 534 kts | 55° |
| 2026-04-30 12:42 | 22.59988 | -117.39275 | 36962 ft | 535 kts | 55° |
| 2026-04-30 12:43 | 22.64018 | -117.32542 | 36952 ft | 536 kts | 55° |
| 2026-04-30 12:43 | 22.68066 | -117.25769 | 36951 ft | 536 kts | 56° |
| 2026-04-30 12:44 | 22.72104 | -117.19003 | 36952 ft | 537 kts | 56° |
| 2026-04-30 12:44 | 22.76173 | -117.12179 | 36953 ft | 538 kts | 56° |
| 2026-04-30 12:45 | 22.80211 | -117.05397 | 36955 ft | 538 kts | 56° |
| 2026-04-30 12:45 | 22.84271 | -116.98568 | 36958 ft | 538 kts | 56° |
| 2026-04-30 12:46 | 22.88304 | -116.91776 | 36961 ft | 539 kts | 56° |
| 2026-04-30 12:46 | 22.92371 | -116.84918 | 36963 ft | 539 kts | 56° |
| 2026-04-30 12:47 | 22.96407 | -116.78104 | 36966 ft | 539 kts | 56° |
| 2026-04-30 12:47 | 23.00453 | -116.71263 | 36967 ft | 539 kts | 56° |
| 2026-04-30 12:48 | 23.04499 | -116.64415 | 36969 ft | 539 kts | 56° |
| 2026-04-30 12:48 | 23.08536 | -116.57572 | 36970 ft | 539 kts | 56° |
| 2026-04-30 12:49 | 23.12547 | -116.50762 | 36964 ft | 539 kts | 56° |
| 2026-04-30 12:49 | 23.16604 | -116.43868 | 36963 ft | 539 kts | 56° |
| 2026-04-30 12:50 | 23.20605 | -116.37058 | 36962 ft | 539 kts | 57° |
| 2026-04-30 12:50 | 23.24647 | -116.30170 | 36950 ft | 539 kts | 57° |
| 2026-04-30 12:51 | 23.28671 | -116.23302 | 36949 ft | 539 kts | 57° |
| 2026-04-30 12:51 | 23.32684 | -116.16444 | 36950 ft | 539 kts | 57° |
| 2026-04-30 12:52 | 23.36693 | -116.09584 | 36952 ft | 539 kts | 57° |
| 2026-04-30 12:52 | 23.40714 | -116.02696 | 36954 ft | 540 kts | 57° |
| 2026-04-30 12:53 | 23.44728 | -115.95806 | 36955 ft | 540 kts | 57° |
| 2026-04-30 12:53 | 23.48761 | -115.88877 | 36956 ft | 540 kts | 57° |
| 2026-04-30 12:54 | 23.52771 | -115.81977 | 36957 ft | 539 kts | 58° |
| 2026-04-30 12:54 | 23.56749 | -115.75124 | 36958 ft | 539 kts | 58° |
| 2026-04-30 12:55 | 23.60760 | -115.68205 | 36959 ft | 539 kts | 58° |
| 2026-04-30 12:55 | 23.64744 | -115.61323 | 36960 ft | 539 kts | 58° |
| 2026-04-30 12:56 | 23.68745 | -115.54403 | 36961 ft | 539 kts | 58° |
| 2026-04-30 12:56 | 23.72738 | -115.47482 | 36963 ft | 539 kts | 58° |
| 2026-04-30 12:57 | 23.76719 | -115.40577 | 36964 ft | 539 kts | 58° |
| 2026-04-30 12:57 | 23.80721 | -115.33626 | 36959 ft | 539 kts | 58° |
| 2026-04-30 12:58 | 23.84689 | -115.26723 | 36953 ft | 539 kts | 58° |
| 2026-04-30 12:58 | 23.88652 | -115.19820 | 36953 ft | 538 kts | 58° |
| 2026-04-30 12:59 | 23.92619 | -115.12901 | 36955 ft | 538 kts | 58° |
| 2026-04-30 12:59 | 23.96587 | -115.05970 | 36953 ft | 537 kts | 58° |
| 2026-04-30 13:00 | 24.00535 | -114.99062 | 36950 ft | 537 kts | 58° |
| 2026-04-30 13:00 | 24.04471 | -114.92075 | 36950 ft | 537 kts | 58° |
| 2026-04-30 13:01 | 24.08366 | -114.85140 | 36952 ft | 537 kts | 58° |
| 2026-04-30 13:01 | 24.12286 | -114.78153 | 36947 ft | 539 kts | 58° |
| 2026-04-30 13:02 | 24.16209 | -114.71154 | 36947 ft | 540 kts | 58° |
| 2026-04-30 13:02 | 24.20124 | -114.64159 | 36956 ft | 540 kts | 58° |
| 2026-04-30 13:03 | 24.24026 | -114.57177 | 36968 ft | 540 kts | 58° |
| 2026-04-30 13:03 | 24.27928 | -114.50186 | 36954 ft | 539 kts | 58° |
| 2026-04-30 13:04 | 24.31835 | -114.43177 | 36934 ft | 538 kts | 58° |
| 2026-04-30 13:04 | 24.35723 | -114.36192 | 36931 ft | 538 kts | 58° |
| 2026-04-30 13:05 | 24.39626 | -114.29172 | 36920 ft | 538 kts | 58° |
| 2026-04-30 13:06 | 24.45444 | -114.18684 | 36921 ft | 538 kts | 58° |
| 2026-04-30 13:06 | 24.49322 | -114.11679 | 36924 ft | 538 kts | 58° |
| 2026-04-30 13:07 | 24.53204 | -114.04657 | 36925 ft | 538 kts | 58° |
| 2026-04-30 13:07 | 24.57067 | -113.97663 | 36926 ft | 538 kts | 58° |
| 2026-04-30 13:08 | 24.60945 | -113.90630 | 36927 ft | 539 kts | 58° |
| 2026-04-30 13:08 | 24.64805 | -113.83619 | 36930 ft | 539 kts | 58° |
| 2026-04-30 13:09 | 24.68684 | -113.76564 | 36931 ft | 539 kts | 58° |
| 2026-04-30 13:09 | 24.72545 | -113.69531 | 36930 ft | 539 kts | 58° |
| 2026-04-30 13:10 | 24.76448 | -113.62412 | 36931 ft | 539 kts | 58° |
| 2026-04-30 13:10 | 24.80316 | -113.55343 | 36933 ft | 540 kts | 58° |
| 2026-04-30 13:11 | 24.84192 | -113.48255 | 36934 ft | 540 kts | 58° |
| 2026-04-30 13:11 | 24.88077 | -113.41135 | 36935 ft | 540 kts | 58° |
| 2026-04-30 13:12 | 24.91972 | -113.33987 | 36932 ft | 541 kts | 58° |
| 2026-04-30 13:12 | 24.95882 | -113.26800 | 36921 ft | 542 kts | 58° |
| 2026-04-30 13:13 | 25.01700 | -113.16085 | 36923 ft | 543 kts | 58° |
| 2026-04-30 13:14 | 25.07498 | -113.05384 | 36924 ft | 543 kts | 58° |
| 2026-04-30 13:14 | 25.13328 | -112.94599 | 36919 ft | 543 kts | 58° |
| 2026-04-30 13:15 | 25.19139 | -112.83825 | 36919 ft | 544 kts | 58° |
| 2026-04-30 13:16 | 25.23029 | -112.76598 | 36919 ft | 544 kts | 58° |
| 2026-04-30 13:16 | 25.26891 | -112.69412 | 36921 ft | 544 kts | 58° |
| 2026-04-30 13:17 | 25.32724 | -112.58539 | 36922 ft | 545 kts | 58° |
| 2026-04-30 13:18 | 25.38534 | -112.47682 | 36923 ft | 544 kts | 58° |
| 2026-04-30 13:18 | 25.44290 | -112.36903 | 36921 ft | 544 kts | 58° |
| 2026-04-30 13:19 | 25.48130 | -112.29697 | 36902 ft | 544 kts | 59° |
| 2026-04-30 13:19 | 25.51973 | -112.22475 | 36902 ft | 545 kts | 59° |
| 2026-04-30 13:20 | 25.55799 | -112.15273 | 36903 ft | 545 kts | 59° |
| 2026-04-30 13:20 | 25.59642 | -112.08025 | 36905 ft | 545 kts | 59° |
| 2026-04-30 13:21 | 25.63472 | -112.00795 | 36906 ft | 544 kts | 59° |
| 2026-04-30 13:22 | 25.69215 | -111.89927 | 36911 ft | 545 kts | 59° |
| 2026-04-30 13:22 | 25.74928 | -111.79094 | 36921 ft | 545 kts | 59° |
| 2026-04-30 13:23 | 25.80644 | -111.68230 | 36944 ft | 545 kts | 59° |
| 2026-04-30 13:24 | 25.88288 | -111.53661 | 36969 ft | 545 kts | 59° |
| 2026-04-30 13:25 | 25.95860 | -111.39178 | 36992 ft | 545 kts | 59° |
| 2026-04-30 13:26 | 26.03041 | -111.29591 | 36927 ft | 539 kts | 40° |
| 2026-04-30 13:26 | 26.08521 | -111.23877 | 36909 ft | 539 kts | 40° |
| 2026-04-30 13:28 | 26.22183 | -111.09526 | 36895 ft | 540 kts | 40° |
| 2026-04-30 13:28 | 26.30364 | -111.00884 | 36901 ft | 539 kts | 40° |
| 2026-04-30 13:29 | 26.41211 | -110.89388 | 36902 ft | 539 kts | 40° |
| 2026-04-30 13:31 | 26.54768 | -110.74972 | 36900 ft | 539 kts | 40° |
| 2026-04-30 13:32 | 26.68319 | -110.60509 | 36898 ft | 539 kts | 40° |
| 2026-04-30 13:33 | 26.79196 | -110.48862 | 36896 ft | 538 kts | 40° |
| 2026-04-30 13:34 | 26.87277 | -110.40188 | 36892 ft | 537 kts | 40° |
| 2026-04-30 13:35 | 26.98065 | -110.28579 | 36873 ft | 537 kts | 40° |
| 2026-04-30 13:36 | 27.08813 | -110.16983 | 36868 ft | 538 kts | 40° |
| 2026-04-30 13:36 | 27.16903 | -110.08232 | 36862 ft | 538 kts | 40° |
| 2026-04-30 13:37 | 27.24968 | -109.99494 | 36861 ft | 538 kts | 40° |
| 2026-04-30 13:38 | 27.33050 | -109.90719 | 36864 ft | 538 kts | 40° |
| 2026-04-30 13:39 | 27.43863 | -109.79150 | 36873 ft | 537 kts | 38° |
| 2026-04-30 13:40 | 27.52152 | -109.70657 | 36885 ft | 537 kts | 38° |
| 2026-04-30 13:40 | 27.57662 | -109.64988 | 36887 ft | 537 kts | 38° |
| 2026-04-30 13:41 | 27.63192 | -109.59285 | 36893 ft | 537 kts | 38° |
| 2026-04-30 13:41 | 27.68698 | -109.53595 | 36902 ft | 537 kts | 38° |
| 2026-04-30 13:42 | 27.74167 | -109.47933 | 36917 ft | 538 kts | 38° |
| 2026-04-30 13:42 | 27.82439 | -109.39353 | 36930 ft | 537 kts | 38° |
| 2026-04-30 13:43 | 27.87935 | -109.33642 | 36929 ft | 538 kts | 39° |
| 2026-04-30 13:43 | 27.93419 | -109.27934 | 36934 ft | 537 kts | 39° |
| 2026-04-30 13:44 | 27.98909 | -109.22211 | 36892 ft | 538 kts | 39° |
| 2026-04-30 13:44 | 28.01655 | -109.19346 | 36697 ft | 539 kts | 39° |
| 2026-04-30 13:44 | 28.04421 | -109.16457 | 36487 ft | 538 kts | 39° |
| 2026-04-30 13:45 | 28.09920 | -109.10707 | 36015 ft | 537 kts | 39° |
| 2026-04-30 13:45 | 28.12659 | -109.07841 | 35788 ft | 538 kts | 39° |
| 2026-04-30 13:46 | 28.18214 | -109.02022 | 35632 ft | 542 kts | 38° |
| 2026-04-30 13:46 | 28.23744 | -108.96220 | 35598 ft | 542 kts | 39° |
| 2026-04-30 13:47 | 28.29309 | -108.90372 | 35656 ft | 544 kts | 39° |
| 2026-04-30 13:47 | 28.34841 | -108.84550 | 35775 ft | 544 kts | 39° |
| 2026-04-30 13:48 | 28.40400 | -108.78690 | 35879 ft | 544 kts | 39° |
| 2026-04-30 13:48 | 28.43151 | -108.75787 | 36030 ft | 542 kts | 39° |
| 2026-04-30 13:48 | 28.45924 | -108.72858 | 36260 ft | 544 kts | 39° |
| 2026-04-30 13:48 | 28.48691 | -108.69935 | 36489 ft | 544 kts | 39° |
| 2026-04-30 13:49 | 28.51469 | -108.66997 | 36718 ft | 545 kts | 39° |
| 2026-04-30 13:49 | 28.54251 | -108.64053 | 37008 ft | 544 kts | 39° |
| 2026-04-30 13:49 | 28.56996 | -108.61146 | 37212 ft | 546 kts | 38° |
| 2026-04-30 13:50 | 28.62537 | -108.55270 | 37265 ft | 543 kts | 38° |
| 2026-04-30 13:50 | 28.67603 | -108.48902 | 37235 ft | 549 kts | 53° |
| 2026-04-30 13:50 | 28.69587 | -108.45163 | 37240 ft | 552 kts | 60° |
| 2026-04-30 13:51 | 28.73153 | -108.37407 | 37223 ft | 552 kts | 61° |
| 2026-04-30 13:51 | 28.76664 | -108.29663 | 37201 ft | 552 kts | 62° |
| 2026-04-30 13:52 | 28.80174 | -108.21889 | 37181 ft | 553 kts | 62° |
| 2026-04-30 13:52 | 28.83676 | -108.14106 | 37112 ft | 553 kts | 62° |
| 2026-04-30 13:53 | 28.87174 | -108.06313 | 37047 ft | 553 kts | 62° |
| 2026-04-30 13:53 | 28.90676 | -107.98492 | 36999 ft | 553 kts | 62° |
| 2026-04-30 13:54 | 28.94156 | -107.90702 | 36959 ft | 553 kts | 62° |
| 2026-04-30 13:54 | 28.97640 | -107.82888 | 36963 ft | 553 kts | 62° |
| 2026-04-30 13:55 | 29.01107 | -107.75097 | 36973 ft | 554 kts | 62° |
| 2026-04-30 13:55 | 29.04594 | -107.67245 | 36975 ft | 554 kts | 62° |
| 2026-04-30 13:56 | 29.08053 | -107.59439 | 36982 ft | 554 kts | 62° |
| 2026-04-30 13:56 | 29.11527 | -107.51584 | 37001 ft | 554 kts | 62° |
| 2026-04-30 13:57 | 29.14996 | -107.43725 | 37046 ft | 554 kts | 62° |
| 2026-04-30 13:57 | 29.18453 | -107.35877 | 37076 ft | 554 kts | 62° |
| 2026-04-30 13:58 | 29.23658 | -107.24033 | 37089 ft | 554 kts | 62° |
| 2026-04-30 13:59 | 29.27110 | -107.16157 | 37294 ft | 554 kts | 62° |
| 2026-04-30 13:59 | 29.30550 | -107.08293 | 37382 ft | 555 kts | 62° |
| 2026-04-30 14:00 | 29.33993 | -107.00405 | 37253 ft | 554 kts | 62° |
| 2026-04-30 14:00 | 29.39148 | -106.88566 | 37172 ft | 555 kts | 62° |
| 2026-04-30 14:01 | 29.42585 | -106.80653 | 36968 ft | 554 kts | 62° |
| 2026-04-30 14:01 | 29.44297 | -106.76704 | 36801 ft | 554 kts | 62° |
| 2026-04-30 14:01 | 29.45998 | -106.72778 | 36614 ft | 553 kts | 62° |
| 2026-04-30 14:02 | 29.49420 | -106.64869 | 36824 ft | 554 kts | 62° |
| 2026-04-30 14:02 | 29.51109 | -106.60957 | 36995 ft | 554 kts | 62° |
| 2026-04-30 14:02 | 29.52836 | -106.56955 | 37178 ft | 555 kts | 62° |
| 2026-04-30 14:03 | 29.56255 | -106.49019 | 37283 ft | 557 kts | 62° |
| 2026-04-30 14:03 | 29.59664 | -106.41088 | 37284 ft | 556 kts | 62° |
| 2026-04-30 14:04 | 29.63093 | -106.33099 | 37214 ft | 555 kts | 62° |
| 2026-04-30 14:04 | 29.66490 | -106.25165 | 37189 ft | 556 kts | 62° |
| 2026-04-30 14:05 | 29.69902 | -106.17178 | 37175 ft | 557 kts | 62° |
| 2026-04-30 14:05 | 29.73304 | -106.09199 | 37147 ft | 557 kts | 62° |
| 2026-04-30 14:06 | 29.78389 | -105.97240 | 37112 ft | 557 kts | 62° |
| 2026-04-30 14:07 | 29.83472 | -105.85249 | 37097 ft | 557 kts | 62° |
| 2026-04-30 14:08 | 29.88540 | -105.73257 | 37059 ft | 557 kts | 62° |
| 2026-04-30 14:08 | 29.93618 | -105.61202 | 37054 ft | 557 kts | 62° |
| 2026-04-30 14:09 | 29.96981 | -105.53201 | 37062 ft | 557 kts | 62° |
| 2026-04-30 14:10 | 30.02027 | -105.41158 | 37115 ft | 555 kts | 62° |
| 2026-04-30 14:10 | 30.05378 | -105.33139 | 37147 ft | 556 kts | 63° |
| 2026-04-30 14:11 | 30.08764 | -105.25021 | 37502 ft | 567 kts | 63° |
| 2026-04-30 14:11 | 30.10453 | -105.20963 | 38010 ft | 564 kts | 63° |
| 2026-04-30 14:11 | 30.12144 | -105.16897 | 38452 ft | 563 kts | 63° |
| 2026-04-30 14:11 | 30.13836 | -105.12825 | 38778 ft | 563 kts | 63° |
| 2026-04-30 14:12 | 30.15539 | -105.08720 | 39054 ft | 565 kts | 63° |
| 2026-04-30 14:12 | 30.17216 | -105.04675 | 39184 ft | 567 kts | 63° |
| 2026-04-30 14:12 | 30.18920 | -105.00558 | 39203 ft | 564 kts | 63° |
| 2026-04-30 14:13 | 30.22283 | -104.92423 | 39226 ft | 561 kts | 63° |
| 2026-04-30 14:13 | 30.23952 | -104.88380 | 39064 ft | 558 kts | 63° |
| 2026-04-30 14:13 | 30.25612 | -104.84356 | 39030 ft | 558 kts | 63° |
| 2026-04-30 14:14 | 30.28945 | -104.76259 | 39020 ft | 558 kts | 63° |
| 2026-04-30 14:14 | 30.32118 | -104.68092 | 39069 ft | 558 kts | 65° |
| 2026-04-30 14:15 | 30.35217 | -104.59855 | 39104 ft | 557 kts | 65° |
| 2026-04-30 14:15 | 30.38305 | -104.51655 | 39121 ft | 557 kts | 65° |
| 2026-04-30 14:16 | 30.41380 | -104.43478 | 39090 ft | 556 kts | 65° |
| 2026-04-30 14:16 | 30.44466 | -104.35264 | 39071 ft | 555 kts | 65° |
| 2026-04-30 14:17 | 30.47523 | -104.27113 | 39082 ft | 554 kts | 66° |
| 2026-04-30 14:17 | 30.50578 | -104.18951 | 39111 ft | 554 kts | 66° |
| 2026-04-30 14:18 | 30.53641 | -104.10753 | 39117 ft | 553 kts | 66° |
| 2026-04-30 14:18 | 30.58194 | -103.98527 | 39131 ft | 553 kts | 66° |
| 2026-04-30 14:19 | 30.62784 | -103.86165 | 39108 ft | 554 kts | 66° |
| 2026-04-30 14:20 | 30.65817 | -103.77974 | 39086 ft | 554 kts | 66° |
| 2026-04-30 14:20 | 30.70369 | -103.65644 | 39062 ft | 555 kts | 66° |
| 2026-04-30 14:21 | 30.73405 | -103.57394 | 39055 ft | 556 kts | 66° |
| 2026-04-30 14:22 | 30.77955 | -103.44999 | 39024 ft | 558 kts | 66° |
| 2026-04-30 14:22 | 30.82512 | -103.32538 | 38985 ft | 559 kts | 66° |
| 2026-04-30 14:23 | 30.88569 | -103.15903 | 38992 ft | 561 kts | 66° |
| 2026-04-30 14:24 | 30.93132 | -103.03317 | 39028 ft | 562 kts | 66° |
| 2026-04-30 14:25 | 30.99809 | -102.86946 | 39022 ft | 562 kts | 60° |
| 2026-04-30 14:26 | 31.05286 | -102.74841 | 39015 ft | 563 kts | 60° |
| 2026-04-30 14:27 | 31.10722 | -102.62685 | 39009 ft | 564 kts | 60° |
| 2026-04-30 14:27 | 31.14315 | -102.54603 | 39005 ft | 564 kts | 60° |
| 2026-04-30 14:28 | 31.19725 | -102.42376 | 39008 ft | 565 kts | 60° |
| 2026-04-30 14:28 | 31.23325 | -102.34210 | 39012 ft | 565 kts | 60° |
| 2026-04-30 14:29 | 31.29905 | -102.19231 | 39018 ft | 567 kts | 60° |
| 2026-04-30 14:31 | 31.39471 | -101.97343 | 39044 ft | 569 kts | 60° |
| 2026-04-30 14:31 | 31.44868 | -101.84934 | 39047 ft | 570 kts | 60° |
| 2026-04-30 14:32 | 31.50258 | -101.72501 | 39058 ft | 571 kts | 60° |
| 2026-04-30 14:33 | 31.53867 | -101.64150 | 39060 ft | 571 kts | 60° |
| 2026-04-30 14:33 | 31.59217 | -101.51740 | 39058 ft | 571 kts | 60° |
| 2026-04-30 14:34 | 31.62781 | -101.43446 | 39058 ft | 571 kts | 60° |
| 2026-04-30 14:34 | 31.66336 | -101.35156 | 39060 ft | 571 kts | 60° |
| 2026-04-30 14:35 | 31.71675 | -101.22671 | 39039 ft | 571 kts | 60° |
| 2026-04-30 14:36 | 31.75224 | -101.14349 | 39043 ft | 570 kts | 60° |
| 2026-04-30 14:36 | 31.78765 | -101.06025 | 39047 ft | 570 kts | 60° |
| 2026-04-30 14:37 | 31.82297 | -100.97702 | 39049 ft | 570 kts | 60° |
| 2026-04-30 14:37 | 31.85829 | -100.89362 | 39057 ft | 570 kts | 60° |
| 2026-04-30 14:38 | 31.89367 | -100.80987 | 39068 ft | 570 kts | 60° |
| 2026-04-30 14:38 | 31.92882 | -100.72646 | 39073 ft | 571 kts | 60° |
| 2026-04-30 14:39 | 31.96400 | -100.64282 | 39077 ft | 572 kts | 60° |
| 2026-04-30 14:39 | 31.99928 | -100.55873 | 39081 ft | 572 kts | 60° |
| 2026-04-30 14:40 | 32.05207 | -100.43255 | 39094 ft | 574 kts | 60° |
| 2026-04-30 14:40 | 32.08743 | -100.34780 | 39095 ft | 577 kts | 60° |
| 2026-04-30 14:41 | 32.12269 | -100.26303 | 39055 ft | 578 kts | 60° |
| 2026-04-30 14:41 | 32.15790 | -100.17819 | 39052 ft | 577 kts | 60° |
| 2026-04-30 14:42 | 32.19336 | -100.09259 | 39056 ft | 577 kts | 60° |
| 2026-04-30 14:42 | 32.22832 | -100.00797 | 39058 ft | 577 kts | 60° |
| 2026-04-30 14:43 | 32.26223 | -99.92176 | 39057 ft | 579 kts | 68° |
| 2026-04-30 14:43 | 32.27985 | -99.83005 | 39059 ft | 576 kts | 85° |
| 2026-04-30 14:44 | 32.28535 | -99.75025 | 38694 ft | 563 kts | 86° |
| 2026-04-30 14:44 | 32.28814 | -99.70390 | 37995 ft | 562 kts | 86° |
| 2026-04-30 14:44 | 32.29086 | -99.65706 | 37256 ft | 588 kts | 86° |
| 2026-04-30 14:45 | 32.29356 | -99.60877 | 36314 ft | 598 kts | 86° |
| 2026-04-30 14:45 | 32.29624 | -99.55983 | 34992 ft | 600 kts | 86° |
| 2026-04-30 14:45 | 32.29883 | -99.51157 | 33899 ft | 589 kts | 86° |
| 2026-04-30 14:45 | 32.30135 | -99.46402 | 33009 ft | 575 kts | 86° |
| 2026-04-30 14:46 | 32.30376 | -99.41768 | 32103 ft | 562 kts | 86° |
| 2026-04-30 14:46 | 32.30618 | -99.37073 | 31224 ft | 581 kts | 86° |
| 2026-04-30 14:46 | 32.30863 | -99.32247 | 30240 ft | 592 kts | 86° |
| 2026-04-30 14:46 | 32.31104 | -99.27442 | 29628 ft | 582 kts | 86° |
| 2026-04-30 14:47 | 32.31337 | -99.22756 | 29042 ft | 572 kts | 86° |
| 2026-04-30 14:47 | 32.31564 | -99.18139 | 28502 ft | 564 kts | 86° |
| 2026-04-30 14:47 | 32.31789 | -99.13541 | 27894 ft | 558 kts | 86° |
| 2026-04-30 14:47 | 32.32010 | -99.08981 | 27238 ft | 554 kts | 86° |
| 2026-04-30 14:48 | 32.32227 | -99.04458 | 26568 ft | 550 kts | 86° |
| 2026-04-30 14:48 | 32.32441 | -98.99970 | 25892 ft | 546 kts | 86° |
| 2026-04-30 14:48 | 32.32650 | -98.95547 | 25213 ft | 542 kts | 86° |
| 2026-04-30 14:48 | 32.32860 | -98.91119 | 24508 ft | 538 kts | 86° |
| 2026-04-30 14:49 | 32.33066 | -98.86756 | 23811 ft | 535 kts | 86° |
| 2026-04-30 14:49 | 32.33271 | -98.82366 | 23069 ft | 531 kts | 86° |
| 2026-04-30 14:49 | 32.33473 | -98.78025 | 22320 ft | 527 kts | 87° |
| 2026-04-30 14:49 | 32.33668 | -98.73794 | 21584 ft | 522 kts | 87° |
| 2026-04-30 14:50 | 32.34055 | -98.65281 | 20199 ft | 510 kts | 87° |
| 2026-04-30 14:50 | 32.34239 | -98.61198 | 19988 ft | 492 kts | 87° |
| 2026-04-30 14:51 | 32.34585 | -98.53381 | 19316 ft | 467 kts | 87° |
| 2026-04-30 14:51 | 32.34748 | -98.49623 | 18841 ft | 461 kts | 87° |
| 2026-04-30 14:51 | 32.35072 | -98.42165 | 17967 ft | 447 kts | 87° |
| 2026-04-30 14:52 | 32.35227 | -98.38514 | 17547 ft | 440 kts | 87° |
| 2026-04-30 14:52 | 32.35527 | -98.31419 | 16710 ft | 426 kts | 88° |
| 2026-04-30 14:52 | 32.35672 | -98.27981 | 16312 ft | 419 kts | 88° |
| 2026-04-30 14:53 | 32.35951 | -98.21182 | 15532 ft | 412 kts | 88° |
| 2026-04-30 14:53 | 32.36089 | -98.17827 | 15148 ft | 409 kts | 88° |
| 2026-04-30 14:54 | 32.36359 | -98.11159 | 14387 ft | 402 kts | 87° |
| 2026-04-30 14:54 | 32.36622 | -98.04599 | 13642 ft | 396 kts | 87° |
| 2026-04-30 14:55 | 32.36879 | -97.98145 | 12907 ft | 387 kts | 87° |
| 2026-04-30 14:55 | 32.37006 | -97.94982 | 12523 ft | 382 kts | 87° |
| 2026-04-30 14:55 | 32.37249 | -97.88753 | 11557 ft | 377 kts | 87° |
| 2026-04-30 14:56 | 32.37487 | -97.82694 | 10852 ft | 364 kts | 87° |
| 2026-04-30 14:56 | 32.37714 | -97.76845 | 10254 ft | 350 kts | 87° |
| 2026-04-30 14:57 | 32.37825 | -97.73978 | 9987 ft | 342 kts | 87° |
| 2026-04-30 14:57 | 32.38034 | -97.68473 | 9410 ft | 330 kts | 87° |
| 2026-04-30 14:58 | 32.38585 | -97.63248 | 8731 ft | 309 kts | 62° |
| 2026-04-30 14:58 | 32.39703 | -97.61197 | 8620 ft | 291 kts | 48° |
| 2026-04-30 14:58 | 32.42515 | -97.57669 | 7834 ft | 296 kts | 43° |
| 2026-04-30 14:59 | 32.45419 | -97.54301 | 7163 ft | 288 kts | 42° |
| 2026-04-30 15:00 | 32.47984 | -97.48364 | 6406 ft | 270 kts | 80° |
| 2026-04-30 15:00 | 32.48418 | -97.44019 | 6036 ft | 265 kts | 83° |
| 2026-04-30 15:01 | 32.48830 | -97.39719 | 5677 ft | 261 kts | 82° |
| 2026-04-30 15:01 | 32.48961 | -97.38302 | 5549 ft | 261 kts | 83° |
| 2026-04-30 15:01 | 32.49433 | -97.33342 | 5427 ft | 261 kts | 84° |
| 2026-04-30 15:02 | 32.49630 | -97.31228 | 5254 ft | 257 kts | 83° |
| 2026-04-30 15:02 | 32.49822 | -97.29169 | 5071 ft | 250 kts | 83° |
| 2026-04-30 15:03 | 32.51695 | -97.23729 | 4788 ft | 242 kts | 59° |
| 2026-04-30 15:03 | 32.53245 | -97.20226 | 4645 ft | 239 kts | 64° |
| 2026-04-30 15:04 | 32.54716 | -97.16727 | 4481 ft | 239 kts | 64° |
| 2026-04-30 15:04 | 32.56890 | -97.11494 | 4253 ft | 236 kts | 64° |
| 2026-04-30 15:05 | 32.59267 | -97.06475 | 4015 ft | 233 kts | 43° |
| 2026-04-30 15:06 | 32.62385 | -97.05566 | 4003 ft | 241 kts | 2° |
| 2026-04-30 15:06 | 32.65747 | -97.05633 | 3999 ft | 241 kts | 3° |
| 2026-04-30 15:07 | 32.69025 | -97.05643 | 3447 ft | 228 kts | 4° |
| 2026-04-30 15:07 | 32.71940 | -97.05617 | 3232 ft | 190 kts | 6° |
| 2026-04-30 15:08 | 32.74488 | -97.05567 | 3117 ft | 178 kts | 6° |
| 2026-04-30 15:08 | 32.78299 | -97.05547 | 2459 ft | 182 kts | 6° |
| 2026-04-30 15:09 | 32.80758 | -97.05525 | 1992 ft | 172 kts | 6° |
| 2026-04-30 15:09 | 32.82964 | -97.05514 | 1570 ft | 145 kts | 7° |
| 2026-04-30 15:10 | 32.84956 | -97.05509 | 1138 ft | 142 kts | 6° |
| 2026-04-30 15:11 | 32.88852 | -97.05482 | 593 ft | 116 kts | 3° |
| 2026-04-30 15:11 | 32.89782 | -97.05463 | 617 ft | 24 kts | 12° |
| 2026-04-30 15:12 | 32.90083 | -97.05293 | 623 ft | 12 kts | 44° |
| 2026-04-30 15:13 | 32.90116 | -97.05077 | 621 ft | 15 kts | 89° |
| 2026-04-30 15:14 | 32.90106 | -97.04768 | 614 ft | 10 kts | 95° |
| 2026-04-30 15:14 | 32.90028 | -97.04595 | 610 ft | 4 kts | 135° |
| 2026-04-30 15:16 | 32.90014 | -97.04582 | 610 ft | 0 kts | 148° |